Time;durP1;ratioP1;P1;durP2;ratioP2;P2;SDS_P1;SDS_P2;PMS_P1;PMS_P2;Temp;Humidity;BMP_temperature;BMP_pressure;BME280_temperature;BME280_humidity;BME280_pressure;Samples;Min_cycle;Max_cycle;Signal;HPM_P1;HPM_P2
2023/02/26 00:01:41;;;;;;;1.17;0.95;;;15.30;58.00;;;;;;5048923;28;20184;-74
2023/02/26 00:04:07;;;;;;;2.00;1.08;;;15.40;58.60;;;;;;5056368;28;20193;-73
2023/02/26 00:06:51;;;;;;;3.15;1.08;;;15.30;58.40;;;;;;5052548;28;20257;-73
2023/02/26 00:09:17;;;;;;;2.10;0.82;;;15.30;58.70;;;;;;5045468;28;20198;-74
2023/02/26 00:11:43;;;;;;;1.70;1.05;;;15.30;58.40;;;;;;5053107;28;20184;-74
2023/02/26 00:14:14;;;;;;;3.50;1.23;;;15.30;58.80;;;;;;5051371;28;20199;-73
2023/02/26 00:16:39;;;;;;;4.28;1.08;;;15.20;57.20;;;;;;5046293;28;20567;-73
2023/02/26 00:19:07;;;;;;;3.13;1.35;;;15.20;58.20;;;;;;5051349;28;20184;-74
2023/02/26 00:21:34;;;;;;;3.65;0.98;;;15.30;58.00;;;;;;5047646;28;20183;-73
2023/02/26 00:24:01;;;;;;;1.02;1.02;;;15.20;58.20;;;;;;5046357;28;20204;-74
2023/02/26 00:26:28;;;;;;;3.40;1.08;;;15.30;57.70;;;;;;5055511;28;20244;-74
2023/02/26 00:28:55;;;;;;;1.85;1.00;;;15.20;58.10;;;;;;5049120;28;20184;-74
2023/02/26 00:31:24;;;;;;;2.03;0.95;;;15.20;57.60;;;;;;5051160;28;20278;-74
2023/02/26 00:33:55;;;;;;;1.40;1.02;;;15.20;57.70;;;;;;5049574;28;20199;-73
2023/02/26 00:36:45;;;;;;;4.38;1.35;;;15.20;57.90;;;;;;5050670;28;20196;-74
2023/02/26 00:39:48;;;;;;;0.73;0.73;;;15.10;58.10;;;;;;5055500;28;20190;-74
2023/02/26 00:42:14;;;;;;;1.73;1.00;;;15.00;57.90;;;;;;5045450;28;20996;-74
2023/02/26 00:44:40;;;;;;;7.28;0.77;;;15.10;58.70;;;;;;5038627;28;20221;-74
2023/02/26 00:47:16;;;;;;;3.75;0.98;;;15.10;58.20;;;;;;5051630;28;20796;-74
2023/02/26 00:50:24;;;;;;;2.78;0.88;;;15.10;58.00;;;;;;5053491;28;20187;-74
2023/02/26 00:53:05;;;;;;;0.88;0.88;;;15.10;58.10;;;;;;5043625;28;20183;-74
2023/02/26 00:55:31;;;;;;;3.97;0.82;;;15.00;57.80;;;;;;5044679;28;20239;-74
2023/02/26 00:57:57;;;;;;;5.93;1.20;;;15.00;58.10;;;;;;5031349;28;20237;-73
2023/02/26 01:00:22;;;;;;;1.85;0.90;;;15.00;57.80;;;;;;5026730;28;20271;-74
2023/02/26 01:02:49;;;;;;;1.42;0.77;;;15.00;56.70;;;;;;5047447;28;20266;-73
2023/02/26 01:05:15;;;;;;;2.25;1.10;;;15.00;57.30;;;;;;5049717;28;21124;-74
2023/02/26 01:08:52;;;;;;;3.90;1.08;;;15.00;57.20;;;;;;5046373;28;20297;-74
2023/02/26 01:11:18;;;;;;;5.93;1.02;;;15.10;56.90;;;;;;4942454;29;20195;-74
2023/02/26 01:13:43;;;;;;;3.42;0.70;;;15.00;57.00;;;;;;4942562;28;20963;-74
2023/02/26 01:16:16;;;;;;;0.90;0.70;;;15.00;57.30;;;;;;4941396;29;20346;-74
2023/02/26 01:18:51;;;;;;;1.88;1.20;;;15.00;57.30;;;;;;4941217;29;20667;-73
2023/02/26 01:21:23;;;;;;;0.95;0.95;;;15.00;57.50;;;;;;4925731;29;20183;-74
2023/02/26 01:23:50;;;;;;;3.25;0.90;;;15.00;56.80;;;;;;4919669;28;20717;-74
2023/02/26 01:26:22;;;;;;;6.75;0.98;;;15.00;57.20;;;;;;4902998;29;20200;-74
2023/02/26 01:28:48;;;;;;;0.65;0.63;;;14.90;57.30;;;;;;4889607;29;20523;-73
2023/02/26 01:31:51;;;;;;;1.45;0.95;;;14.90;57.70;;;;;;4905224;29;20202;-74
2023/02/26 01:34:43;;;;;;;3.03;1.50;;;14.90;57.70;;;;;;4944546;28;20286;-74
2023/02/26 01:37:11;;;;;;;3.80;1.30;;;14.90;57.30;;;;;;4940788;28;20670;-74
2023/02/26 01:39:48;;;;;;;3.20;1.20;;;14.80;57.70;;;;;;4943032;29;20696;-74
2023/02/26 01:42:31;;;;;;;1.88;0.82;;;14.70;58.20;;;;;;4940911;28;20374;-74
2023/02/26 01:45:16;;;;;;;0.77;0.77;;;14.70;58.50;;;;;;4982463;28;20600;-74
2023/02/26 01:47:55;;;;;;;0.95;0.73;;;14.60;58.60;;;;;;5045058;28;20565;-73
2023/02/26 01:50:30;;;;;;;0.80;0.80;;;14.70;58.70;;;;;;5044208;28;20298;-74
2023/02/26 01:53:15;;;;;;;6.78;0.90;;;14.70;58.80;;;;;;5030860;28;20680;-74
2023/02/26 01:55:43;;;;;;;1.10;0.98;;;14.70;58.60;;;;;;5050847;28;20432;-74
2023/02/26 01:58:08;;;;;;;1.52;1.08;;;14.70;58.70;;;;;;5046780;28;20197;-73
2023/02/26 02:00:34;;;;;;;3.65;0.95;;;14.70;58.40;;;;;;5049479;28;20583;-72
2023/02/26 02:03:00;;;;;;;1.02;0.95;;;14.60;58.80;;;;;;5044997;28;20743;-72
2023/02/26 02:05:40;;;;;;;0.82;0.82;;;14.50;58.80;;;;;;5045827;28;20600;-73
2023/02/26 02:08:06;;;;;;;7.57;0.95;;;14.50;59.20;;;;;;5048039;28;20263;-73
2023/02/26 02:10:31;;;;;;;2.42;1.02;;;14.40;58.70;;;;;;5043532;28;20200;-74
2023/02/26 02:13:29;;;;;;;1.20;0.65;;;14.40;58.20;;;;;;5048466;28;20222;-73
2023/02/26 02:16:15;;;;;;;2.35;1.08;;;14.40;57.90;;;;;;4993364;28;20216;-75
2023/02/26 02:18:44;;;;;;;5.68;0.70;;;14.40;57.80;;;;;;5006072;28;20670;-74
2023/02/26 02:21:44;;;;;;;1.02;0.50;;;14.50;57.30;;;;;;5001123;28;21071;-74
2023/02/26 02:24:15;;;;;;;3.53;0.88;;;14.40;57.40;;;;;;5005523;28;20189;-74
2023/02/26 02:27:06;;;;;;;2.80;0.73;;;14.50;56.90;;;;;;5011610;28;20201;-74
2023/02/26 02:29:32;;;;;;;0.80;0.70;;;14.50;57.20;;;;;;5011730;28;20188;-74
2023/02/26 02:31:59;;;;;;;1.67;0.93;;;14.40;57.10;;;;;;4994433;28;20191;-74
2023/02/26 02:34:36;;;;;;;3.65;0.68;;;14.50;57.10;;;;;;5005683;28;20227;-73
2023/02/26 02:37:21;;;;;;;0.65;0.60;;;14.50;56.60;;;;;;5009118;28;20189;-73
2023/02/26 02:39:56;;;;;;;0.80;0.80;;;14.60;56.50;;;;;;4989791;28;20203;-73
2023/02/26 02:42:25;;;;;;;2.63;0.70;;;14.60;56.60;;;;;;5009537;28;20194;-73
2023/02/26 02:44:57;;;;;;;4.18;0.68;;;14.60;56.40;;;;;;5005137;28;20196;-74
2023/02/26 02:47:26;;;;;;;1.20;0.77;;;14.60;56.60;;;;;;5011449;28;22055;-74
2023/02/26 02:50:07;;;;;;;1.02;0.98;;;14.60;56.30;;;;;;5008672;28;20252;-74
2023/02/26 02:52:57;;;;;;;3.28;0.93;;;14.60;56.20;;;;;;5036178;28;20199;-74
2023/02/26 02:55:41;;;;;;;1.42;0.70;;;14.50;56.60;;;;;;5056208;28;20775;-73
2023/02/26 02:58:16;;;;;;;1.70;0.85;;;14.50;56.30;;;;;;5051257;28;20552;-74
2023/02/26 03:00:46;;;;;;;2.58;1.20;;;14.60;56.40;;;;;;5051134;28;20182;-73
2023/02/26 03:03:38;;;;;;;0.80;0.80;;;14.60;56.40;;;;;;5051359;28;20179;-74
2023/02/26 03:06:04;;;;;;;0.85;0.85;;;14.60;56.80;;;;;;5041961;28;20204;-72
2023/02/26 03:08:37;;;;;;;3.35;1.20;;;14.60;56.90;;;;;;5027183;28;20683;-74
2023/02/26 03:11:03;;;;;;;2.45;0.57;;;14.60;56.70;;;;;;5041297;28;20288;-74
2023/02/26 03:13:29;;;;;;;2.63;0.82;;;14.50;56.80;;;;;;5024956;28;20243;-74
2023/02/26 03:16:16;;;;;;;1.42;0.85;;;14.40;56.60;;;;;;5040735;28;20698;-74
2023/02/26 03:19:07;;;;;;;2.05;0.47;;;14.30;57.00;;;;;;5041626;28;20271;-74
2023/02/26 03:21:51;;;;;;;3.63;0.95;;;14.30;57.10;;;;;;5041103;28;20180;-73
2023/02/26 03:24:28;;;;;;;0.65;0.65;;;14.10;57.80;;;;;;5040897;28;20192;-73
2023/02/26 03:27:09;;;;;;;1.92;0.85;;;14.20;57.00;;;;;;5037536;28;20226;-74
2023/02/26 03:29:51;;;;;;;3.72;0.93;;;14.20;56.60;;;;;;5040384;28;20191;-73
2023/02/26 03:32:39;;;;;;;4.13;0.70;;;14.20;56.70;;;;;;5025286;28;20179;-74
2023/02/26 03:35:15;;;;;;;2.17;0.90;;;14.20;56.90;;;;;;5042266;28;20602;-73
2023/02/26 03:37:46;;;;;;;6.78;0.77;;;14.20;56.50;;;;;;5042808;28;20222;-73
2023/02/26 03:40:25;;;;;;;4.43;1.05;;;14.20;56.60;;;;;;5041812;28;20179;-73
2023/02/26 03:43:01;;;;;;;1.30;0.82;;;14.20;56.50;;;;;;5049836;28;20195;-74
2023/02/26 03:45:31;;;;;;;1.40;0.68;;;14.20;56.70;;;;;;5050842;28;20735;-74
2023/02/26 03:47:59;;;;;;;3.30;0.55;;;14.20;56.80;;;;;;5052588;28;20215;-73
2023/02/26 03:50:43;;;;;;;1.88;0.70;;;14.20;56.80;;;;;;5052908;28;20761;-73
2023/02/26 03:53:14;;;;;;;0.93;0.55;;;14.30;56.50;;;;;;5054143;28;20779;-74
2023/02/26 03:56:06;;;;;;;0.90;0.90;;;14.20;56.80;;;;;;5050913;28;20217;-74
2023/02/26 03:58:31;;;;;;;5.68;1.00;;;14.30;56.80;;;;;;5049137;28;20683;-73
2023/02/26 04:01:06;;;;;;;1.10;0.82;;;14.30;56.90;;;;;;5048566;28;20184;-74
2023/02/26 04:03:43;;;;;;;1.10;0.70;;;14.30;56.80;;;;;;5052034;28;20185;-73
2023/02/26 04:06:09;;;;;;;0.70;0.70;;;14.30;57.10;;;;;;5052240;28;20182;-73
2023/02/26 04:08:35;;;;;;;4.30;0.95;;;14.30;57.30;;;;;;5051337;28;20241;-73
2023/02/26 04:11:11;;;;;;;1.05;0.65;;;14.30;57.50;;;;;;5051235;28;20187;-74
2023/02/26 04:13:36;;;;;;;1.13;0.75;;;14.20;56.90;;;;;;5054163;28;20179;-73
2023/02/26 04:16:03;;;;;;;0.60;0.60;;;14.20;56.80;;;;;;5051668;28;20718;-73
2023/02/26 04:18:28;;;;;;;0.60;0.60;;;14.30;56.80;;;;;;5049168;28;20573;-74
2023/02/26 04:20:54;;;;;;;3.80;0.82;;;14.30;56.80;;;;;;5049227;28;20199;-74
2023/02/26 04:23:20;;;;;;;3.60;0.90;;;14.40;56.60;;;;;;5052089;28;20191;-74
2023/02/26 04:25:46;;;;;;;4.38;0.80;;;14.30;56.60;;;;;;5051151;28;20196;-73
2023/02/26 04:28:11;;;;;;;0.80;0.80;;;14.40;56.90;;;;;;5046970;28;20195;-72
2023/02/26 04:30:37;;;;;;;1.33;1.23;;;14.40;56.90;;;;;;5051750;28;20184;-72
2023/02/26 04:33:03;;;;;;;2.50;0.70;;;14.30;56.70;;;;;;5048803;28;20898;-72
2023/02/26 04:35:29;;;;;;;0.90;0.70;;;14.30;56.40;;;;;;5050755;28;20215;-74
2023/02/26 04:37:54;;;;;;;1.95;0.68;;;14.30;56.10;;;;;;5052489;28;20182;-73
2023/02/26 04:40:22;;;;;;;8.90;0.68;;;14.30;56.30;;;;;;5054195;28;20214;-74
2023/02/26 04:42:48;;;;;;;3.53;0.82;;;14.30;56.40;;;;;;5048404;28;20199;-73
2023/02/26 04:45:14;;;;;;;2.30;0.90;;;14.30;56.30;;;;;;5049986;28;20633;-73
2023/02/26 04:47:40;;;;;;;0.90;0.80;;;14.30;56.70;;;;;;5052722;28;20183;-74
2023/02/26 04:50:06;;;;;;;1.55;0.80;;;14.30;56.60;;;;;;5050068;28;20269;-73
2023/02/26 04:52:32;;;;;;;1.60;0.65;;;14.10;57.40;;;;;;5049286;28;20671;-73
2023/02/26 04:54:57;;;;;;;5.95;0.70;;;14.20;55.40;;;;;;5053857;28;20208;-74
2023/02/26 04:57:23;;;;;;;2.38;0.80;;;14.30;55.90;;;;;;5051473;28;20182;-74
2023/02/26 04:59:49;;;;;;;1.27;0.63;;;14.30;55.80;;;;;;5052344;28;20188;-74
2023/02/26 05:02:14;;;;;;;2.00;1.00;;;14.30;55.60;;;;;;5052581;28;20179;-73
2023/02/26 05:04:40;;;;;;;3.88;0.82;;;14.40;55.60;;;;;;5047049;28;20233;-73
2023/02/26 05:07:06;;;;;;;1.60;0.80;;;14.40;55.50;;;;;;5054390;28;20204;-74
2023/02/26 05:09:32;;;;;;;3.30;0.63;;;14.40;55.20;;;;;;5047999;28;20299;-74
2023/02/26 05:11:57;;;;;;;3.80;0.70;;;14.40;55.00;;;;;;5050054;28;20183;-74
2023/02/26 05:14:23;;;;;;;6.63;0.68;;;14.40;55.20;;;;;;5052197;28;20786;-74
2023/02/26 05:16:49;;;;;;;2.85;1.25;;;14.50;54.70;;;;;;5052759;28;20183;-73
2023/02/26 05:19:14;;;;;;;2.13;0.60;;;14.50;54.40;;;;;;5052920;28;20179;-74
2023/02/26 05:21:40;;;;;;;8.07;0.60;;;14.60;54.30;;;;;;5051502;28;20289;-74
2023/02/26 05:24:06;;;;;;;5.05;0.80;;;14.70;54.50;;;;;;5049859;28;20195;-74
2023/02/26 05:26:32;;;;;;;1.33;0.65;;;14.70;54.40;;;;;;5047218;28;20333;-73
2023/02/26 05:28:58;;;;;;;5.30;0.80;;;14.80;54.40;;;;;;5045814;28;20187;-74
2023/02/26 05:31:25;;;;;;;1.75;0.73;;;14.80;54.40;;;;;;5048550;28;20618;-73
2023/02/26 05:33:51;;;;;;;7.60;0.95;;;14.80;54.20;;;;;;5052646;28;20222;-74
2023/02/26 05:36:17;;;;;;;3.10;0.90;;;14.80;54.20;;;;;;5051054;28;20254;-74
2023/02/26 05:38:43;;;;;;;5.88;1.02;;;14.80;54.30;;;;;;5047570;28;20180;-74
2023/02/26 05:41:08;;;;;;;0.95;0.65;;;14.90;54.20;;;;;;5053538;28;20259;-74
2023/02/26 05:43:34;;;;;;;4.25;0.68;;;14.90;54.40;;;;;;5046628;28;20283;-74
2023/02/26 05:46:00;;;;;;;3.83;0.75;;;14.90;54.00;;;;;;5047249;28;20218;-73
2023/02/26 05:48:26;;;;;;;4.63;0.70;;;15.00;54.10;;;;;;5047863;28;20195;-73
2023/02/26 05:50:52;;;;;;;1.45;0.70;;;14.90;53.90;;;;;;5045724;28;20957;-73
2023/02/26 05:53:18;;;;;;;3.58;1.00;;;15.00;54.10;;;;;;5049450;28;20321;-73
2023/02/26 05:55:44;;;;;;;7.28;0.63;;;15.00;53.70;;;;;;5049987;28;20211;-73
2023/02/26 05:58:10;;;;;;;1.85;0.47;;;15.10;53.70;;;;;;5044085;28;20183;-75
2023/02/26 06:00:35;;;;;;;6.25;0.75;;;15.10;53.70;;;;;;5047661;28;20179;-74
2023/02/26 06:03:01;;;;;;;2.45;0.82;;;15.10;54.10;;;;;;5048850;28;20199;-72
2023/02/26 06:05:27;;;;;;;4.65;0.88;;;15.10;54.00;;;;;;5050625;28;20265;-72
2023/02/26 06:07:52;;;;;;;4.10;0.73;;;15.10;53.80;;;;;;5053247;28;20187;-73
2023/02/26 06:10:18;;;;;;;4.75;0.50;;;15.20;53.30;;;;;;5051115;28;20233;-73
2023/02/26 06:12:44;;;;;;;5.45;1.08;;;15.20;53.00;;;;;;5047119;28;20186;-73
2023/02/26 06:15:10;;;;;;;0.95;0.55;;;15.30;53.00;;;;;;5049770;28;20353;-72
2023/02/26 06:17:36;;;;;;;0.73;0.50;;;15.40;52.70;;;;;;5054503;28;20249;-72
2023/02/26 06:20:03;;;;;;;2.58;0.80;;;15.40;52.50;;;;;;5048492;28;20219;-73
2023/02/26 06:22:29;;;;;;;1.35;0.65;;;15.50;52.60;;;;;;5042228;28;20185;-73
2023/02/26 06:24:55;;;;;;;1.08;0.73;;;15.50;52.50;;;;;;5048333;28;20258;-75
2023/02/26 06:27:21;;;;;;;4.22;0.65;;;15.60;52.10;;;;;;5047139;28;20274;-73
2023/02/26 06:29:47;;;;;;;4.18;0.52;;;15.70;52.40;;;;;;5042855;28;20268;-73
2023/02/26 06:32:12;;;;;;;1.40;0.63;;;15.70;51.60;;;;;;5044921;28;20693;-73
2023/02/26 06:34:38;;;;;;;1.52;1.00;;;15.80;51.60;;;;;;5044258;28;20298;-72
2023/02/26 06:37:04;;;;;;;4.55;1.00;;;15.90;51.50;;;;;;5041943;28;20207;-73
2023/02/26 06:39:30;;;;;;;2.58;0.77;;;16.00;51.30;;;;;;5045059;28;20760;-72
2023/02/26 06:41:55;;;;;;;6.22;0.82;;;16.00;51.30;;;;;;5045092;28;20279;-72
2023/02/26 06:44:21;;;;;;;4.30;0.70;;;16.00;51.10;;;;;;5047717;28;20194;-73
2023/02/26 06:46:47;;;;;;;3.42;0.60;;;16.00;50.70;;;;;;5044825;28;20226;-73
2023/02/26 06:49:12;;;;;;;5.15;1.00;;;16.00;50.90;;;;;;5047553;28;20211;-73
2023/02/26 06:51:38;;;;;;;1.65;0.80;;;16.10;51.00;;;;;;5046673;28;20183;-74
2023/02/26 06:54:04;;;;;;;1.23;0.60;;;16.10;51.00;;;;;;5047860;28;20203;-75
2023/02/26 06:56:29;;;;;;;2.70;1.10;;;16.20;51.00;;;;;;5050393;28;20180;-75
2023/02/26 06:58:55;;;;;;;1.55;0.40;;;16.30;50.20;;;;;;5047730;28;20195;-74
2023/02/26 07:01:21;;;;;;;5.65;0.50;;;16.30;50.30;;;;;;5045013;28;20262;-74
2023/02/26 07:03:46;;;;;;;2.25;0.60;;;16.30;50.30;;;;;;5044702;28;20549;-74
2023/02/26 07:06:12;;;;;;;5.63;0.68;;;16.40;50.20;;;;;;5052426;28;20219;-74
2023/02/26 07:08:38;;;;;;;4.47;0.55;;;16.40;49.90;;;;;;5049681;28;20195;-74
2023/02/26 07:11:04;;;;;;;0.80;0.70;;;16.40;50.20;;;;;;5046955;28;20590;-75
2023/02/26 07:13:30;;;;;;;1.90;0.57;;;16.50;50.30;;;;;;5049650;28;20558;-74
2023/02/26 07:15:56;;;;;;;1.55;0.70;;;16.60;50.30;;;;;;5046627;28;20208;-75
2023/02/26 07:18:21;;;;;;;1.05;0.68;;;16.70;49.60;;;;;;5044747;28;20195;-74
2023/02/26 07:20:50;;;;;;;1.85;0.40;;;16.80;49.80;;;;;;5042977;28;20222;-74
2023/02/26 07:23:16;;;;;;;3.70;0.73;;;16.60;49.40;;;;;;5048244;28;20237;-74
2023/02/26 07:25:41;;;;;;;0.70;0.45;;;16.70;49.80;;;;;;5047143;28;20187;-74
2023/02/26 07:28:07;;;;;;;9.27;0.45;;;16.70;49.80;;;;;;5048017;28;20677;-74
2023/02/26 07:30:33;;;;;;;3.15;0.75;;;16.90;49.80;;;;;;5049670;28;20234;-74
2023/02/26 07:32:59;;;;;;;5.05;0.65;;;17.10;50.10;;;;;;5044998;28;20657;-73
2023/02/26 07:35:25;;;;;;;1.67;0.98;;;17.20;48.80;;;;;;5041625;28;20204;-74
2023/02/26 07:37:51;;;;;;;4.32;0.80;;;17.30;48.50;;;;;;5043956;28;20183;-74
2023/02/26 07:40:17;;;;;;;1.25;0.75;;;17.50;48.70;;;;;;5050384;28;20183;-74
2023/02/26 07:42:43;;;;;;;5.18;0.60;;;17.60;48.80;;;;;;5049900;28;20680;-73
2023/02/26 07:45:09;;;;;;;1.27;0.70;;;17.60;48.60;;;;;;5050467;28;20271;-74
2023/02/26 07:47:35;;;;;;;5.82;0.82;;;17.70;48.40;;;;;;5046477;28;20269;-73
2023/02/26 07:50:00;;;;;;;6.68;1.05;;;17.60;48.80;;;;;;5051826;28;20176;-71
2023/02/26 07:52:27;;;;;;;6.97;1.30;;;17.80;48.40;;;;;;5043142;28;20190;-72
2023/02/26 07:54:53;;;;;;;4.40;0.93;;;18.00;48.10;;;;;;5046561;28;20206;-72
2023/02/26 07:57:19;;;;;;;4.53;0.52;;;18.20;48.80;;;;;;5050546;28;20270;-72
2023/02/26 07:59:45;;;;;;;5.35;0.75;;;18.40;47.00;;;;;;5042674;28;20262;-73
2023/02/26 08:02:11;;;;;;;1.00;0.63;;;18.20;46.80;;;;;;5047166;28;20172;-72
2023/02/26 08:04:38;;;;;;;1.77;0.90;;;18.20;48.00;;;;;;5043283;28;20214;-71
2023/02/26 08:07:03;;;;;;;3.15;1.00;;;18.10;47.20;;;;;;5042986;28;20211;-74
2023/02/26 08:09:29;;;;;;;2.75;0.63;;;18.10;47.50;;;;;;5041734;28;20187;-73
2023/02/26 08:11:55;;;;;;;3.53;0.65;;;18.20;47.40;;;;;;5047507;28;20184;-72
2023/02/26 08:14:21;;;;;;;6.80;0.82;;;18.20;47.50;;;;;;5045887;28;20218;-73
2023/02/26 08:16:47;;;;;;;3.92;0.70;;;18.20;46.90;;;;;;5042379;28;20194;-73
2023/02/26 08:19:13;;;;;;;4.72;1.30;;;18.30;46.80;;;;;;5046434;28;20196;-70
2023/02/26 08:21:39;;;;;;;8.50;0.93;;;18.30;47.30;;;;;;5044906;28;20195;-72
2023/02/26 08:24:05;;;;;;;1.88;0.65;;;;;;;;;;5042249;28;20584;-72
2023/02/26 08:26:34;;;;;;;3.70;0.77;;;18.10;47.00;;;;;;5049417;28;20751;-72
2023/02/26 08:29:00;;;;;;;2.50;0.77;;;;;;;;;;5046974;28;20183;-72
2023/02/26 08:31:27;;;;;;;3.55;0.60;;;18.20;47.20;;;;;;5045942;28;20236;-72
2023/02/26 08:33:53;;;;;;;1.48;0.63;;;;;;;;;;5040471;28;20261;-70
2023/02/26 08:36:20;;;;;;;3.10;0.63;;;18.40;46.80;;;;;;5048671;28;20183;-72
2023/02/26 08:38:46;;;;;;;7.63;0.63;;;;;;;;;;5049515;28;21762;-72
2023/02/26 08:41:12;;;;;;;0.40;0.40;;;18.60;47.30;;;;;;5052625;28;20178;-73
2023/02/26 08:43:38;;;;;;;0.50;0.50;;;18.80;46.90;;;;;;5042041;28;20184;-71
2023/02/26 08:46:04;;;;;;;4.25;0.45;;;18.80;46.80;;;;;;5051819;28;21165;-72
2023/02/26 08:48:30;;;;;;;0.45;0.45;;;18.90;46.80;;;;;;5050905;28;20184;-72
2023/02/26 08:50:55;;;;;;;0.68;0.68;;;18.90;46.80;;;;;;5045370;28;20572;-71
2023/02/26 08:53:21;;;;;;;1.85;0.80;;;19.00;46.90;;;;;;5048599;28;20191;-73
2023/02/26 08:55:48;;;;;;;1.00;0.95;;;19.00;46.50;;;;;;5051560;28;20223;-72
2023/02/26 08:58:14;;;;;;;2.40;0.55;;;18.80;46.40;;;;;;5048299;28;20179;-72
2023/02/26 09:00:40;;;;;;;5.97;0.80;;;18.80;47.00;;;;;;5047052;28;20195;-72
2023/02/26 09:03:05;;;;;;;5.22;0.80;;;18.70;46.30;;;;;;5049459;28;20187;-72
2023/02/26 09:05:31;;;;;;;1.20;0.65;;;18.80;47.00;;;;;;5056318;28;20184;-72
2023/02/26 09:07:56;;;;;;;1.00;0.70;;;18.80;46.00;;;;;;5050024;28;20191;-71
2023/02/26 09:10:22;;;;;;;1.70;0.70;;;18.70;46.40;;;;;;5046841;28;20293;-72
2023/02/26 09:12:48;;;;;;;3.70;0.80;;;18.80;46.60;;;;;;5045734;28;20194;-72
2023/02/26 09:15:13;;;;;;;2.00;0.90;;;19.00;45.00;;;;;;5053279;28;20702;-72
2023/02/26 09:17:40;;;;;;;2.22;0.75;;;19.50;45.40;;;;;;5048265;28;20172;-72
2023/02/26 09:20:06;;;;;;;8.13;0.98;;;20.00;45.60;;;;;;5048098;28;20652;-72
2023/02/26 09:22:31;;;;;;;2.50;0.70;;;20.40;44.30;;;;;;5048792;28;20183;-72
2023/02/26 09:24:57;;;;;;;1.98;1.02;;;21.00;43.70;;;;;;5048450;28;20183;-71
2023/02/26 09:27:24;;;;;;;4.63;1.20;;;21.50;42.70;;;;;;5055370;28;20191;-72
2023/02/26 09:29:49;;;;;;;9.52;1.23;;;21.90;42.00;;;;;;5047522;28;20229;-72
2023/02/26 09:32:15;;;;;;;4.03;1.23;;;22.00;43.30;;;;;;5045276;28;20432;-72
2023/02/26 09:34:42;;;;;;;0.65;0.63;;;22.30;41.80;;;;;;5039795;28;20222;-73
2023/02/26 09:37:08;;;;;;;2.22;1.42;;;22.40;41.70;;;;;;5034221;28;20199;-73
2023/02/26 09:39:35;;;;;;;1.65;1.08;;;22.30;42.00;;;;;;5017450;28;20576;-71
2023/02/26 09:42:35;;;;;;;5.93;1.35;;;22.40;41.90;;;;;;5035996;28;21191;-72
2023/02/26 09:45:01;;;;;;;0.85;0.80;;;22.80;41.20;;;;;;5034838;28;20194;-72
2023/02/26 09:47:40;;;;;;;3.17;1.40;;;22.80;41.00;;;;;;5019079;28;20855;-73
2023/02/26 09:50:25;;;;;;;14.63;2.03;;;22.70;41.50;;;;;;5018325;28;20298;-72
2023/02/26 09:53:12;;;;;;;7.50;3.13;;;23.00;40.90;;;;;;5011770;28;20446;-74
2023/02/26 09:55:44;;;;;;;5.38;2.53;;;23.40;43.50;;;;;;5021935;28;20219;-73
2023/02/26 09:58:30;;;;;;;8.02;2.33;;;24.00;40.30;;;;;;5024611;28;20334;-73
2023/02/26 10:01:21;;;;;;;2.08;1.85;;;24.00;40.40;;;;;;5023249;28;20214;-73
2023/02/26 10:04:05;;;;;;;2.70;1.73;;;24.30;40.50;;;;;;5021274;28;20226;-72
2023/02/26 10:06:56;;;;;;;7.05;2.92;;;24.30;40.00;;;;;;5011773;28;20199;-72
2023/02/26 10:09:29;;;;;;;2.90;1.90;;;24.00;41.20;;;;;;5016619;28;20218;-72
2023/02/26 10:12:26;;;;;;;4.07;1.73;;;24.10;40.60;;;;;;5014063;28;20703;-72
2023/02/26 10:15:00;;;;;;;5.40;2.15;;;23.90;40.80;;;;;;5052396;28;20219;-72
2023/02/26 10:17:41;;;;;;;3.03;1.48;;;23.90;42.00;;;;;;5044338;28;20237;-72
2023/02/26 10:20:24;;;;;;;3.15;1.63;;;23.80;41.00;;;;;;5049788;28;20183;-71
2023/02/26 10:23:02;;;;;;;3.25;1.30;;;23.50;42.20;;;;;;5047306;28;20187;-72
2023/02/26 10:25:36;;;;;;;7.47;1.73;;;23.60;41.20;;;;;;5031311;28;20206;-71
2023/02/26 10:28:27;;;;;;;5.15;1.38;;;23.50;43.70;;;;;;5048793;28;20206;-73
2023/02/26 10:31:04;;;;;;;3.30;1.25;;;23.50;41.10;;;;;;5046941;28;20183;-72
2023/02/26 10:34:14;;;;;;;4.40;1.33;;;23.10;42.10;;;;;;5048386;28;20186;-72
2023/02/26 10:37:06;;;;;;;2.65;1.17;;;22.70;41.60;;;;;;4998701;28;20188;-73
2023/02/26 10:39:42;;;;;;;4.03;0.95;;;22.70;42.50;;;;;;5014202;28;20200;-73
2023/02/26 10:42:29;;;;;;;2.58;0.98;;;22.80;42.30;;;;;;4982871;28;20208;-72
2023/02/26 10:45:07;;;;;;;4.35;0.80;;;22.70;42.10;;;;;;4982971;28;20378;-72
2023/02/26 10:48:02;;;;;;;1.23;0.80;;;22.40;42.50;;;;;;4986330;28;20216;-72
2023/02/26 10:50:28;;;;;;;1.88;0.90;;;22.20;42.30;;;;;;4974845;28;20969;-72
2023/02/26 10:52:54;;;;;;;2.05;0.70;;;22.30;42.90;;;;;;4978491;28;20615;-74
2023/02/26 10:55:58;;;;;;;1.20;1.15;;;22.20;42.90;;;;;;4980338;28;20244;-71
2023/02/26 10:58:25;;;;;;;1.10;1.08;;;21.90;42.90;;;;;;4921972;28;20281;-71
2023/02/26 11:00:55;;;;;;;2.17;0.98;;;21.80;43.10;;;;;;4924112;28;20669;-73
2023/02/26 11:03:55;;;;;;;2.13;0.98;;;21.40;44.10;;;;;;4947154;28;20219;-72
2023/02/26 11:06:30;;;;;;;3.58;1.17;;;21.30;44.40;;;;;;4882346;29;20802;-73
2023/02/26 11:08:58;;;;;;;1.75;1.30;;;21.20;45.10;;;;;;4883248;29;20201;-76
2023/02/26 11:11:44;;;;;;;1.92;0.95;;;21.20;44.30;;;;;;4885611;29;20203;-76
2023/02/26 11:14:10;;;;;;;3.72;1.30;;;21.10;45.00;;;;;;4886499;29;20732;-73
2023/02/26 11:16:46;;;;;;;2.58;0.95;;;21.10;45.70;;;;;;4896479;29;21005;-74
2023/02/26 11:19:14;;;;;;;1.55;1.08;;;21.10;46.10;;;;;;4886828;29;20185;-73
2023/02/26 11:21:43;;;;;;;10.98;1.20;;;21.20;46.20;;;;;;4885877;29;20197;-73
2023/02/26 11:24:27;;;;;;;5.57;0.88;;;21.30;45.60;;;;;;4892051;29;20249;-73
2023/02/26 11:26:55;;;;;;;1.33;1.00;;;21.10;44.10;;;;;;4890464;29;20751;-72
2023/02/26 11:29:23;;;;;;;3.42;1.15;;;20.70;45.60;;;;;;4923105;28;20392;-74
2023/02/26 11:32:00;;;;;;;6.03;1.30;;;20.50;45.60;;;;;;4942390;28;20192;-72
2023/02/26 11:34:26;;;;;;;3.03;1.30;;;20.20;45.80;;;;;;4951243;28;20229;-72
2023/02/26 11:36:56;;;;;;;11.02;1.38;;;19.80;46.10;;;;;;4951520;28;20202;-76
2023/02/26 11:39:28;;;;;;;3.25;1.30;;;19.60;47.20;;;;;;4943149;28;20245;-77
2023/02/26 11:41:59;;;;;;;1.30;1.13;;;19.50;47.20;;;;;;4969055;28;20192;-74
2023/02/26 11:44:46;;;;;;;1.33;1.15;;;19.10;47.70;;;;;;5043299;28;21261;-75
2023/02/26 11:47:13;;;;;;;3.20;1.40;;;18.80;48.00;;;;;;5046309;28;20295;-75
2023/02/26 11:49:43;;;;;;;5.85;1.23;;;18.70;48.70;;;;;;5039624;28;20690;-74
2023/02/26 11:52:14;;;;;;;1.25;1.15;;;18.70;48.30;;;;;;5045875;28;20627;-74
2023/02/26 11:54:42;;;;;;;1.05;1.05;;;18.40;49.00;;;;;;5042272;28;20211;-75
2023/02/26 11:57:18;;;;;;;1.73;1.13;;;18.50;49.50;;;;;;5048504;28;20195;-75
2023/02/26 11:59:48;;;;;;;4.53;1.00;;;18.50;49.00;;;;;;5046716;28;20672;-77
2023/02/26 12:02:17;;;;;;;4.72;0.93;;;18.60;48.90;;;;;;5054242;28;20652;-75
2023/02/26 12:04:45;;;;;;;1.50;0.70;;;18.80;48.90;;;;;;5045510;28;20275;-74
2023/02/26 12:07:14;;;;;;;0.65;0.65;;;19.00;48.80;;;;;;5053918;28;20202;-74
2023/02/26 12:09:40;;;;;;;1.80;0.90;;;19.10;49.00;;;;;;5048690;28;20217;-74
2023/02/26 12:12:45;;;;;;;6.22;1.10;;;19.20;49.40;;;;;;5054340;28;20353;-74
2023/02/26 12:15:19;;;;;;;0.77;0.77;;;19.50;49.30;;;;;;4999275;28;20287;-74
2023/02/26 12:18:01;;;;;;;2.15;1.38;;;19.90;49.70;;;;;;4999086;28;20192;-74
2023/02/26 12:20:44;;;;;;;3.60;0.77;;;20.40;48.90;;;;;;5000419;28;20234;-74
2023/02/26 12:23:18;;;;;;;4.30;1.00;;;20.70;48.20;;;;;;4998047;28;20184;-74
2023/02/26 12:26:11;;;;;;;3.10;0.85;;;20.70;48.00;;;;;;4997444;28;20197;-75
2023/02/26 12:28:54;;;;;;;4.00;0.90;;;20.20;48.80;;;;;;5000254;28;20673;-74
2023/02/26 12:32:00;;;;;;;4.75;1.45;;;19.90;49.90;;;;;;4998918;28;20193;-74
2023/02/26 12:34:25;;;;;;;6.45;1.17;;;19.90;50.00;;;;;;5001338;28;20318;-74
2023/02/26 12:37:12;;;;;;;5.45;0.75;;;20.00;49.80;;;;;;5000350;28;20227;-74
2023/02/26 12:40:16;;;;;;;3.65;1.20;;;20.10;50.00;;;;;;4997624;28;20193;-74
2023/02/26 12:42:58;;;;;;;4.45;0.90;;;20.60;48.70;;;;;;4959215;28;20199;-74
2023/02/26 12:45:47;;;;;;;5.15;1.08;;;21.20;48.90;;;;;;4960695;28;21027;-74
2023/02/26 12:48:34;;;;;;;4.70;1.40;;;21.90;47.30;;;;;;4941968;29;20199;-74
2023/02/26 12:51:02;;;;;;;4.43;1.60;;;22.50;46.50;;;;;;4955016;28;20564;-74
2023/02/26 12:53:36;;;;;;;4.60;0.80;;;22.40;45.70;;;;;;4969043;28;20201;-74
2023/02/26 12:56:15;;;;;;;1.73;1.02;;;22.40;46.70;;;;;;4991818;28;20232;-73
2023/02/26 12:59:15;;;;;;;7.03;1.05;;;22.50;46.20;;;;;;4985661;28;20676;-73
2023/02/26 13:01:46;;;;;;;4.88;1.38;;;22.50;46.30;;;;;;5009208;28;20197;-74
2023/02/26 13:04:26;;;;;;;1.42;1.13;;;21.90;46.70;;;;;;5007746;28;20193;-73
2023/02/26 13:07:12;;;;;;;4.32;1.42;;;21.50;47.10;;;;;;5002496;28;20196;-73
2023/02/26 13:10:01;;;;;;;2.20;1.10;;;21.10;47.30;;;;;;5005850;28;20189;-73
2023/02/26 13:12:53;;;;;;;9.48;1.73;;;20.50;49.20;;;;;;5005583;28;20212;-73
2023/02/26 13:15:43;;;;;;;3.92;1.15;;;20.00;49.10;;;;;;5006268;28;20734;-73